createdAt,value
2022-10-29T00:00:38.144Z,97622.09
2022-10-29T00:06:12.486Z,97625.41
2022-10-29T00:11:34.263Z,97622.41
2022-10-29T00:16:57.007Z,97628.09
2022-10-29T00:22:17.766Z,97631.00
2022-10-29T00:27:38.581Z,97647.28
2022-10-29T00:32:59.196Z,97649.59
2022-10-29T00:38:19.797Z,97642.28
2022-10-29T00:43:52.227Z,97641.44
2022-10-29T00:49:13.307Z,97643.63
2022-10-29T00:54:38.818Z,97636.22
2022-10-29T00:59:59.656Z,97638.06
2022-10-29T01:05:28.993Z,97633.06
2022-10-29T01:11:20.031Z,97643.16
2022-10-29T01:17:03.975Z,97642.09
2022-10-29T01:22:45.239Z,97631.72
2022-10-29T01:28:36.940Z,97630.63
2022-10-29T01:34:18.934Z,97636.97
2022-10-29T01:40:01.347Z,97625.41
2022-10-29T01:45:25.559Z,97628.19
2022-10-29T01:50:51.915Z,97625.13
2022-10-29T01:56:12.754Z,97619.19
2022-10-29T02:01:39.776Z,97614.75
2022-10-29T02:07:33.020Z,97621.56
2022-10-29T02:12:56.011Z,97616.03
2022-10-29T02:18:17.797Z,97604.59
2022-10-29T02:23:38.560Z,97600.00
2022-10-29T02:28:59.407Z,97593.78
2022-10-29T02:34:19.977Z,97595.94
2022-10-29T02:39:40.713Z,97591.56
2022-10-29T02:45:01.566Z,97590.59
2022-10-29T02:50:22.163Z,97594.59
2022-10-29T02:55:42.876Z,97591.84
2022-10-29T03:01:04.327Z,97599.28
2022-10-29T03:06:25.425Z,97588.53
2022-10-29T03:11:46.001Z,97587.72
2022-10-29T03:17:06.744Z,97584.38
2022-10-29T03:22:27.412Z,97568.34
2022-10-29T03:27:48.401Z,97560.94
2022-10-29T03:33:09.224Z,97557.50
2022-10-29T03:38:30.091Z,97560.91
2022-10-29T03:43:51.117Z,97565.84
2022-10-29T03:49:11.893Z,97565.72
2022-10-29T03:54:32.658Z,97573.13
2022-10-29T03:59:54.439Z,97578.25
2022-10-29T04:05:15.105Z,97569.84
2022-10-29T04:10:35.648Z,97570.31
2022-10-29T04:15:56.937Z,97566.72
2022-10-29T04:32:39.488Z,97581.06
2022-10-29T04:38:00.048Z,97578.16
2022-10-29T04:43:20.757Z,97583.56
2022-10-29T04:48:41.422Z,97594.44
2022-10-29T04:54:01.986Z,97587.13
2022-10-29T04:59:22.555Z,97587.09
2022-10-29T05:04:43.225Z,97593.69
2022-10-29T05:10:04.131Z,97601.25
2022-10-29T05:15:25.252Z,97595.97
2022-10-29T05:20:46.353Z,97609.53
2022-10-29T05:26:06.828Z,97595.06
2022-10-29T05:31:27.669Z,97597.97
2022-10-29T05:36:48.332Z,97598.13
2022-10-29T05:42:08.890Z,97608.38
2022-10-29T05:47:29.402Z,97609.69
2022-10-29T05:53:16.299Z,97612.75
2022-10-29T05:58:36.976Z,97608.72
2022-10-29T06:03:58.139Z,97625.66
2022-10-29T06:09:19.026Z,97619.59
2022-10-29T06:14:39.626Z,97624.66
2022-10-29T06:20:00.325Z,97629.66
2022-10-29T06:25:20.879Z,97631.63
2022-10-29T06:30:45.735Z,97645.47
2022-10-29T06:36:07.082Z,97642.78
2022-10-29T06:41:28.794Z,97644.50
2022-10-29T06:46:51.189Z,97647.34
2022-10-29T06:52:11.707Z,97646.22
2022-10-29T06:57:32.415Z,97649.53
2022-10-29T07:02:53.297Z,97651.44
2022-10-29T07:08:14.224Z,97648.53
2022-10-29T07:13:35.797Z,97644.19
2022-10-29T07:18:56.666Z,97644.66
2022-10-29T07:24:20.052Z,97654.63
2022-10-29T07:29:41.003Z,97665.09
2022-10-29T07:35:01.662Z,97659.75
2022-10-29T07:40:22.263Z,97668.25
2022-10-29T07:45:45.273Z,97664.84
2022-10-29T07:51:06.093Z,97670.09
2022-10-29T07:56:27.807Z,97674.78
2022-10-29T08:01:48.833Z,97688.28
2022-10-29T08:07:09.913Z,97686.13
2022-10-29T08:12:30.615Z,97697.44
2022-10-29T08:17:51.604Z,97680.88
2022-10-29T08:23:13.569Z,97681.84
2022-10-29T08:28:35.802Z,97680.44
2022-10-29T08:33:56.721Z,97671.16
2022-10-29T08:39:17.261Z,97662.00
2022-10-29T08:44:53.772Z,97659.31
2022-10-29T08:50:29.857Z,97654.19
2022-10-29T08:55:50.687Z,97662.47
2022-10-29T09:01:12.511Z,97666.47
2022-10-29T09:06:49.205Z,97668.53
2022-10-29T09:12:33.027Z,97667.00
2022-10-29T09:18:10.102Z,97666.03
2022-10-29T09:24:00.335Z,97668.22
2022-10-29T09:29:33.139Z,97663.78
2022-10-29T09:35:00.505Z,97662.53
2022-10-29T09:40:37.784Z,97655.69
2022-10-29T09:46:10.474Z,97661.78
2022-10-29T09:51:53.603Z,97656.69
2022-10-29T09:57:24.110Z,97638.44
2022-10-29T10:02:54.810Z,97626.66
2022-10-29T10:08:15.759Z,97620.06
2022-10-29T10:13:50.017Z,97617.25
2022-10-29T10:19:25.689Z,97617.13
2022-10-29T10:24:47.219Z,97607.31
2022-10-29T10:30:16.018Z,97599.66
2022-10-29T10:35:37.698Z,97601.81
2022-10-29T10:41:05.091Z,97603.03
2022-10-29T10:46:30.801Z,97607.38
2022-10-29T10:51:54.383Z,97596.06
2022-10-29T10:57:17.124Z,97601.50
2022-10-29T11:02:54.983Z,97591.81
2022-10-29T11:08:23.590Z,97589.03
2022-10-29T11:13:44.441Z,97579.94
2022-10-29T11:19:34.202Z,97578.13
2022-10-29T11:24:59.616Z,97575.81
2022-10-29T11:30:20.653Z,97572.81
2022-10-29T11:36:01.440Z,97564.19
2022-10-29T11:41:48.331Z,97560.03
2022-10-29T11:47:30.165Z,97557.72
2022-10-29T11:52:54.176Z,97553.84
2022-10-29T11:58:34.319Z,97545.38
2022-10-29T12:04:24.387Z,97541.66
2022-10-29T12:10:06.804Z,97530.28
2022-10-29T12:15:37.127Z,97531.59
2022-10-29T12:21:08.260Z,97519.03
2022-10-29T12:26:46.263Z,97522.28
2022-10-29T12:32:33.508Z,97516.44
2022-10-29T12:38:32.067Z,97516.25
2022-10-29T12:44:04.126Z,97506.47
2022-10-29T12:49:45.742Z,97498.94
2022-10-29T12:55:10.494Z,97492.66
2022-10-29T13:00:49.650Z,97482.34
2022-10-29T13:06:44.337Z,97478.16
2022-10-29T13:12:10.014Z,97483.63
2022-10-29T13:17:40.208Z,97476.63
2022-10-29T13:23:04.013Z,97474.97
2022-10-29T13:28:28.021Z,97471.88
2022-10-29T13:33:49.966Z,97470.22
2022-10-29T13:39:19.580Z,97468.22
2022-10-29T13:44:40.627Z,97459.75
2022-10-29T13:50:01.498Z,97463.88
2022-10-29T13:55:23.092Z,97459.25
2022-10-29T14:00:46.343Z,97467.34
2022-10-29T14:06:20.740Z,97460.59
2022-10-29T14:11:52.584Z,97469.22
2022-10-29T14:17:16.180Z,97456.34
2022-10-29T14:22:41.097Z,97453.25
2022-10-29T14:28:31.699Z,97445.22
2022-10-29T14:33:57.702Z,97457.25
2022-10-29T14:39:32.791Z,97458.44
2022-10-29T14:45:00.867Z,97451.03
2022-10-29T14:50:24.180Z,97458.56
2022-10-29T14:55:50.106Z,97452.19
2022-10-29T15:01:20.441Z,97454.06
2022-10-29T15:06:41.292Z,97452.47
2022-10-29T15:12:07.528Z,97459.28
2022-10-29T15:17:31.838Z,97452.56
2022-10-29T15:22:55.775Z,97456.56
2022-10-29T15:28:24.594Z,97458.06
2022-10-29T15:33:45.537Z,97463.22
2022-10-29T15:39:20.243Z,97458.94
2022-10-29T15:44:41.218Z,97462.06
2022-10-29T15:50:02.541Z,97463.44
2022-10-29T15:55:29.601Z,97455.72
2022-10-29T16:00:51.679Z,97460.53
2022-10-29T16:06:12.911Z,97467.16
2022-10-29T16:11:35.091Z,97473.13
2022-10-29T16:16:55.678Z,97479.59
2022-10-29T16:22:30.111Z,97475.59
2022-10-29T16:27:51.124Z,97479.41
2022-10-29T16:33:12.324Z,97474.00
2022-10-29T16:38:33.296Z,97475.31
2022-10-29T16:43:54.115Z,97472.50
2022-10-29T16:49:14.708Z,97481.72
2022-10-29T16:54:35.253Z,97482.22
2022-10-29T16:59:55.962Z,97486.63
2022-10-29T17:05:17.091Z,97480.88
2022-10-29T17:10:37.884Z,97476.91
2022-10-29T17:15:58.540Z,97483.16
2022-10-29T17:21:19.309Z,97479.84
2022-10-29T17:26:40.108Z,97479.69
2022-10-29T17:32:01.311Z,97485.94
2022-10-29T17:37:22.126Z,97493.84
2022-10-29T17:42:42.940Z,97488.72
2022-10-29T17:48:03.817Z,97487.69
2022-10-29T17:53:26.062Z,97488.66
2022-10-29T17:58:47.252Z,97491.66
2022-10-29T18:04:07.878Z,97492.50
2022-10-29T18:09:28.643Z,97487.72
2022-10-29T18:14:49.211Z,97489.06
2022-10-29T18:20:10.515Z,97485.09
2022-10-29T18:25:31.373Z,97487.22
2022-10-29T18:30:52.040Z,97481.13
2022-10-29T18:36:12.908Z,97477.00
2022-10-29T18:41:34.574Z,97474.25
2022-10-29T18:46:55.253Z,97475.84
2022-10-29T18:52:16.166Z,97472.41
2022-10-29T18:57:36.804Z,97466.31
2022-10-29T19:02:57.741Z,97467.16
2022-10-29T19:08:18.657Z,97469.91
2022-10-29T19:13:40.135Z,97474.34
2022-10-29T19:24:29.660Z,97478.94
2022-10-29T19:29:50.709Z,97472.69
2022-10-29T19:35:11.620Z,97473.53
2022-10-29T19:40:32.142Z,97477.09
2022-10-29T19:45:53.313Z,97481.00
2022-10-29T19:51:13.930Z,97466.84
2022-10-29T19:56:34.667Z,97472.72
2022-10-29T20:01:55.394Z,97468.56
2022-10-29T20:07:15.710Z,97474.31
2022-10-29T20:12:36.300Z,97470.56
2022-10-29T20:17:59.832Z,97478.34
2022-10-29T20:23:21.231Z,97478.25
2022-10-29T20:28:42.419Z,97476.16
2022-10-29T20:34:03.414Z,97480.81
2022-10-29T20:39:25.534Z,97476.53
2022-10-29T20:44:47.858Z,97478.28
2022-10-29T20:50:09.164Z,97486.84
2022-10-29T20:55:29.682Z,97481.00
2022-10-29T21:00:50.557Z,97482.47
2022-10-29T21:06:17.008Z,97482.66
2022-10-29T21:11:38.006Z,97478.66
2022-10-29T21:16:58.592Z,97485.50
2022-10-29T21:22:19.238Z,97477.31
2022-10-29T21:27:40.296Z,97469.22
2022-10-29T21:33:00.839Z,97471.09
2022-10-29T21:38:22.673Z,97471.56
2022-10-29T21:43:43.803Z,97464.97
2022-10-29T21:49:04.600Z,97463.38
2022-10-29T21:54:28.389Z,97464.88
2022-10-29T21:59:49.422Z,97455.69
2022-10-29T22:05:10.032Z,97452.94
2022-10-29T22:10:30.654Z,97454.06
2022-10-29T22:15:51.219Z,97469.59
2022-10-29T22:21:20.436Z,97466.97
2022-10-29T22:26:41.021Z,97473.16
2022-10-29T22:32:01.592Z,97465.88
2022-10-29T22:37:22.469Z,97459.38
2022-10-29T22:42:43.309Z,97455.09
2022-10-29T22:48:04.296Z,97451.44
2022-10-29T22:53:25.146Z,97452.75
2022-10-29T22:58:46.409Z,97461.56
2022-10-29T23:04:07.057Z,97460.09
2022-10-29T23:09:27.834Z,97463.53
2022-10-29T23:14:48.533Z,97460.91
2022-10-29T23:20:09.484Z,97464.72
2022-10-29T23:25:30.494Z,97459.03
2022-10-29T23:30:58.222Z,97452.81
2022-10-29T23:36:21.774Z,97453.41
2022-10-29T23:41:42.328Z,97452.91
2022-10-29T23:47:03.192Z,97453.78
2022-10-29T23:52:24.110Z,97450.56
2022-10-29T23:57:44.663Z,97446.53
